createdAt,value
2023-03-29T00:02:33.532Z,38.90
2023-03-29T00:05:10.256Z,38.00
2023-03-29T00:07:46.091Z,39.60
2023-03-29T00:10:23.997Z,39.70
2023-03-29T00:12:59.444Z,39.90
2023-03-29T00:15:34.555Z,39.90
2023-03-29T00:18:09.668Z,40.10
2023-03-29T00:20:44.686Z,40.10
2023-03-29T00:23:19.710Z,40.10
2023-03-29T00:25:55.388Z,40.00
2023-03-29T00:28:31.370Z,40.20
2023-03-29T00:31:10.393Z,40.10
2023-03-29T00:33:45.926Z,40.10
2023-03-29T00:36:22.155Z,40.10
2023-03-29T00:38:57.157Z,40.10
2023-03-29T00:41:32.692Z,40.30
2023-03-29T00:44:52.263Z,40.40
2023-03-29T00:47:42.266Z,40.20
2023-03-29T00:50:53.433Z,40.20
2023-03-29T00:53:42.278Z,39.90
2023-03-29T00:56:21.626Z,39.90
2023-03-29T00:59:14.647Z,40.10
2023-03-29T01:02:02.054Z,40.40
2023-03-29T01:04:58.057Z,40.50
2023-03-29T01:07:42.009Z,40.20
2023-03-29T01:10:45.022Z,40.60
2023-03-29T01:13:30.930Z,40.30
2023-03-29T01:16:09.108Z,40.40
2023-03-29T01:18:44.176Z,40.70
2023-03-29T01:21:57.508Z,40.50
2023-03-29T01:25:32.988Z,40.40
2023-03-29T01:28:14.511Z,40.70
2023-03-29T01:31:17.095Z,41.00
2023-03-29T01:34:02.480Z,41.20
2023-03-29T01:36:49.384Z,41.10
2023-03-29T01:39:24.802Z,41.10
2023-03-29T01:42:29.893Z,41.40
2023-03-29T01:45:51.653Z,41.50
2023-03-29T01:48:44.457Z,41.40
2023-03-29T01:51:36.767Z,41.70
2023-03-29T01:54:20.735Z,41.70
2023-03-29T01:56:57.449Z,41.40
2023-03-29T01:59:36.346Z,41.40
2023-03-29T02:02:16.038Z,41.40
2023-03-29T02:04:54.480Z,41.70
2023-03-29T02:07:32.301Z,42.10
2023-03-29T02:10:09.599Z,42.50
2023-03-29T02:12:44.601Z,42.60
2023-03-29T02:15:21.023Z,42.50
2023-03-29T02:17:56.929Z,42.30
2023-03-29T02:20:43.261Z,42.70
2023-03-29T02:23:45.358Z,43.20
2023-03-29T02:26:22.408Z,43.50
2023-03-29T02:28:57.482Z,43.40
2023-03-29T02:31:47.697Z,43.30
2023-03-29T02:34:37.595Z,43.60
2023-03-29T02:37:18.905Z,43.50
2023-03-29T02:39:53.952Z,43.60
2023-03-29T02:42:30.412Z,43.50
2023-03-29T02:45:07.845Z,43.50
2023-03-29T02:47:54.696Z,43.30
2023-03-29T02:50:38.558Z,43.30
2023-03-29T02:53:19.913Z,43.50
2023-03-29T02:55:56.539Z,43.50
2023-03-29T02:58:31.733Z,43.50
2023-03-29T03:01:09.661Z,43.70
2023-03-29T03:03:45.196Z,43.80
2023-03-29T03:06:21.360Z,43.80
2023-03-29T03:08:56.708Z,43.90
2023-03-29T03:11:33.847Z,43.80
2023-03-29T03:14:09.047Z,43.70
2023-03-29T03:16:44.138Z,43.80
2023-03-29T03:19:19.815Z,43.70
2023-03-29T03:21:54.761Z,44.00
2023-03-29T03:24:29.772Z,44.10
2023-03-29T03:27:06.271Z,44.40
2023-03-29T03:29:41.490Z,44.30
2023-03-29T03:32:25.325Z,44.40
2023-03-29T03:35:19.212Z,44.50
2023-03-29T03:38:01.702Z,44.90
2023-03-29T03:40:36.646Z,44.20
2023-03-29T03:43:11.718Z,44.10
2023-03-29T03:45:47.187Z,44.10
2023-03-29T03:48:28.826Z,44.10
2023-03-29T03:51:16.955Z,43.80
2023-03-29T03:53:52.118Z,43.40
2023-03-29T03:56:56.642Z,43.10
2023-03-29T03:59:37.000Z,43.00
2023-03-29T04:02:16.692Z,42.90
2023-03-29T04:04:54.818Z,42.70
2023-03-29T04:07:34.402Z,42.60
2023-03-29T04:10:28.648Z,42.50
2023-03-29T04:13:14.751Z,42.30
2023-03-29T04:16:10.119Z,42.30
2023-03-29T04:18:45.750Z,42.20
2023-03-29T04:21:21.364Z,42.30
2023-03-29T04:23:56.700Z,42.00
2023-03-29T04:26:31.901Z,42.00
2023-03-29T04:29:16.807Z,41.10
2023-03-29T04:31:57.145Z,40.80
2023-03-29T04:34:50.644Z,40.60
2023-03-29T04:37:25.716Z,39.60
2023-03-29T04:40:04.484Z,39.00
2023-03-29T04:42:51.632Z,38.70
2023-03-29T04:45:27.619Z,38.40
2023-03-29T04:48:22.482Z,38.40
2023-03-29T04:50:57.435Z,37.90
2023-03-29T04:53:32.586Z,37.50
2023-03-29T04:56:08.397Z,36.80
2023-03-29T04:59:03.463Z,36.80
2023-03-29T05:01:39.523Z,36.60
2023-03-29T05:04:14.664Z,36.50
2023-03-29T05:07:04.486Z,36.20
2023-03-29T05:09:40.725Z,36.10
2023-03-29T05:12:17.238Z,36.10
2023-03-29T05:14:59.895Z,36.00
2023-03-29T05:17:36.848Z,36.00
2023-03-29T05:20:17.568Z,35.90
2023-03-29T05:22:55.054Z,35.80
2023-03-29T05:25:55.913Z,35.80
2023-03-29T05:28:30.938Z,35.80
2023-03-29T05:31:06.656Z,35.90
2023-03-29T05:33:45.026Z,35.90
2023-03-29T05:36:20.978Z,35.90
2023-03-29T05:38:59.898Z,35.90
2023-03-29T05:41:36.717Z,35.70
2023-03-29T05:44:32.097Z,35.30
2023-03-29T05:47:17.283Z,35.20
2023-03-29T05:49:53.278Z,35.10
2023-03-29T05:52:30.071Z,35.20
2023-03-29T05:55:05.727Z,35.20
2023-03-29T05:57:41.399Z,35.10
2023-03-29T06:00:23.623Z,35.10
2023-03-29T06:03:14.050Z,35.00
2023-03-29T06:06:03.798Z,34.40
2023-03-29T06:08:39.830Z,34.40
2023-03-29T06:11:26.343Z,34.50
2023-03-29T06:14:30.339Z,34.30
2023-03-29T06:17:23.936Z,34.20
2023-03-29T06:19:59.312Z,34.20
2023-03-29T06:22:37.554Z,34.30
2023-03-29T06:25:14.144Z,34.30
2023-03-29T06:27:50.032Z,34.10
2023-03-29T06:30:26.542Z,33.80
2023-03-29T06:33:07.039Z,33.60
2023-03-29T06:35:51.375Z,32.60
2023-03-29T06:38:32.515Z,32.30
2023-03-29T06:41:31.067Z,32.10
2023-03-29T06:44:15.289Z,31.90
2023-03-29T06:47:02.034Z,32.00
2023-03-29T06:49:37.522Z,32.10
2023-03-29T06:52:32.401Z,32.10
2023-03-29T06:55:08.147Z,32.00
2023-03-29T06:57:45.133Z,32.00
2023-03-29T07:00:28.126Z,31.80
2023-03-29T07:03:20.627Z,31.80
2023-03-29T07:06:04.330Z,32.00
2023-03-29T07:08:45.000Z,32.00
2023-03-29T07:11:39.254Z,32.10
2023-03-29T07:14:31.430Z,32.20
2023-03-29T07:17:06.913Z,32.20
2023-03-29T07:19:45.740Z,32.40
2023-03-29T07:22:53.696Z,32.40
2023-03-29T07:25:30.015Z,32.40
2023-03-29T07:28:07.476Z,32.50
2023-03-29T07:30:42.951Z,32.60
2023-03-29T07:33:24.326Z,32.80
2023-03-29T07:36:11.151Z,32.80
2023-03-29T07:38:46.155Z,32.70
2023-03-29T07:41:26.438Z,32.60
2023-03-29T07:44:10.451Z,32.60
2023-03-29T07:46:47.508Z,32.60
2023-03-29T07:49:23.010Z,32.60
2023-03-29T07:51:57.944Z,32.70
2023-03-29T07:54:33.213Z,32.80
2023-03-29T07:57:24.976Z,32.90
2023-03-29T08:00:16.090Z,32.90
2023-03-29T08:02:59.415Z,32.80
2023-03-29T08:05:41.415Z,32.80
2023-03-29T08:08:19.440Z,32.80
2023-03-29T08:11:08.798Z,32.90
2023-03-29T08:14:01.436Z,33.20
2023-03-29T08:16:56.761Z,32.70
2023-03-29T08:19:32.173Z,32.80
2023-03-29T08:22:15.633Z,32.60
2023-03-29T08:25:12.156Z,32.20
2023-03-29T08:27:52.054Z,32.20
2023-03-29T08:30:38.185Z,31.90
2023-03-29T08:33:13.792Z,31.30
2023-03-29T08:35:51.635Z,31.20
2023-03-29T08:38:30.999Z,31.10
2023-03-29T08:41:43.699Z,30.90
2023-03-29T08:44:30.981Z,30.60
2023-03-29T08:48:00.964Z,30.80
2023-03-29T08:50:47.891Z,30.70
2023-03-29T08:53:36.973Z,30.90
2023-03-29T08:56:31.465Z,30.90
2023-03-29T08:59:20.787Z,30.80
2023-03-29T09:01:59.398Z,30.80
2023-03-29T09:04:36.567Z,30.40
2023-03-29T09:07:26.695Z,30.40
2023-03-29T09:10:03.568Z,30.30
2023-03-29T09:13:01.616Z,30.10
2023-03-29T09:16:17.171Z,30.20
2023-03-29T09:19:25.756Z,30.20
2023-03-29T09:22:24.336Z,30.00
2023-03-29T09:25:53.371Z,30.00
2023-03-29T09:28:33.082Z,30.00
2023-03-29T09:31:26.686Z,29.50
2023-03-29T09:34:29.023Z,29.50
2023-03-29T09:37:21.849Z,29.40
2023-03-29T09:39:58.115Z,28.60
2023-03-29T09:42:49.772Z,28.30
2023-03-29T09:45:24.895Z,28.40
2023-03-29T09:48:13.527Z,28.30
2023-03-29T09:50:51.666Z,28.10
2023-03-29T09:53:27.639Z,28.40
2023-03-29T09:56:15.945Z,28.20
2023-03-29T09:58:59.564Z,27.80
2023-03-29T10:01:41.727Z,27.70
2023-03-29T10:04:18.711Z,27.70
2023-03-29T10:07:00.445Z,27.70
2023-03-29T10:09:36.029Z,27.80
2023-03-29T10:12:23.433Z,27.50
2023-03-29T10:15:00.792Z,27.80
2023-03-29T10:17:41.115Z,27.70
2023-03-29T10:20:19.453Z,27.20
2023-03-29T10:22:59.309Z,26.50
2023-03-29T10:25:42.591Z,26.80
2023-03-29T10:28:21.141Z,26.40
2023-03-29T10:30:59.812Z,26.20
2023-03-29T10:33:36.668Z,26.70
2023-03-29T10:36:13.890Z,27.00
2023-03-29T10:38:50.910Z,26.80
2023-03-29T10:41:30.574Z,26.50
2023-03-29T10:44:06.017Z,26.60
2023-03-29T10:46:44.116Z,27.00
2023-03-29T10:49:22.386Z,26.90
2023-03-29T10:51:57.644Z,26.60
2023-03-29T10:54:32.810Z,26.90
2023-03-29T10:57:16.627Z,26.80
2023-03-29T11:00:06.980Z,26.90
2023-03-29T11:03:22.785Z,26.30
2023-03-29T11:06:07.645Z,26.50
2023-03-29T11:08:52.798Z,26.70
2023-03-29T11:12:08.245Z,26.60
2023-03-29T11:15:28.268Z,26.30
2023-03-29T11:18:23.973Z,26.60
2023-03-29T11:21:29.852Z,27.00
2023-03-29T11:24:34.627Z,26.90
2023-03-29T11:27:33.385Z,26.80
2023-03-29T11:30:30.554Z,26.90
2023-03-29T11:33:36.397Z,26.80
2023-03-29T11:36:50.348Z,26.30
2023-03-29T11:40:10.908Z,26.50
2023-03-29T11:42:50.207Z,25.70
2023-03-29T11:45:41.188Z,26.00
2023-03-29T11:48:23.967Z,24.80
2023-03-29T11:51:11.278Z,25.70
2023-03-29T11:54:04.072Z,25.30
2023-03-29T11:56:59.693Z,25.70
2023-03-29T11:59:43.264Z,24.90
2023-03-29T12:02:37.693Z,25.70
2023-03-29T12:05:32.946Z,25.50
2023-03-29T12:08:25.523Z,25.80
2023-03-29T12:11:07.092Z,25.30
2023-03-29T12:13:49.583Z,25.90
2023-03-29T12:16:37.619Z,25.30
2023-03-29T12:19:43.635Z,25.00
2023-03-29T12:22:19.009Z,25.30
2023-03-29T12:24:57.543Z,25.60
2023-03-29T12:27:55.216Z,25.10
2023-03-29T12:30:46.917Z,24.90
2023-03-29T12:33:30.247Z,24.80
2023-03-29T12:37:01.858Z,25.10
2023-03-29T12:40:22.535Z,25.20
2023-03-29T12:43:28.936Z,24.80
2023-03-29T12:46:33.541Z,25.20
2023-03-29T12:49:20.997Z,24.30
2023-03-29T12:51:59.632Z,25.10
2023-03-29T12:54:34.567Z,25.60
2023-03-29T12:57:26.390Z,25.10
2023-03-29T13:00:25.149Z,24.90
2023-03-29T13:03:27.155Z,25.10
2023-03-29T13:06:05.541Z,25.80
2023-03-29T13:08:43.941Z,25.70
2023-03-29T13:11:34.634Z,25.60
2023-03-29T13:14:17.351Z,25.70
2023-03-29T13:16:53.610Z,25.80
2023-03-29T13:20:28.936Z,25.80
2023-03-29T13:23:44.512Z,26.00
2023-03-29T13:26:47.186Z,26.30
2023-03-29T13:30:02.007Z,25.90
2023-03-29T13:33:21.729Z,26.10
2023-03-29T13:36:39.700Z,26.10
2023-03-29T13:39:24.318Z,26.20
2023-03-29T13:42:34.595Z,25.90
2023-03-29T13:45:36.422Z,25.90
2023-03-29T13:48:27.148Z,26.00
2023-03-29T13:51:08.366Z,26.70
2023-03-29T13:53:53.981Z,26.60
2023-03-29T13:56:37.159Z,26.80
2023-03-29T13:59:36.942Z,26.90
2023-03-29T14:02:35.218Z,27.20
2023-03-29T14:05:17.159Z,27.70
2023-03-29T14:07:54.394Z,29.90
2023-03-29T14:10:39.222Z,32.20
2023-03-29T14:13:18.211Z,31.60
2023-03-29T14:16:09.016Z,32.50
2023-03-29T14:18:51.097Z,32.60
2023-03-29T14:21:26.169Z,34.60
2023-03-29T14:24:02.328Z,33.90
2023-03-29T14:26:38.384Z,33.60
2023-03-29T14:29:13.747Z,33.60
2023-03-29T14:31:49.861Z,32.50
2023-03-29T14:34:24.769Z,32.00
2023-03-29T14:36:59.800Z,32.30
2023-03-29T14:39:35.628Z,32.50
2023-03-29T14:42:21.306Z,31.60
2023-03-29T14:45:05.119Z,31.70
2023-03-29T14:47:40.817Z,31.60
2023-03-29T14:50:29.596Z,31.60
2023-03-29T14:53:06.126Z,31.70
2023-03-29T14:55:41.712Z,31.90
2023-03-29T14:58:22.481Z,31.60
2023-03-29T15:00:57.888Z,31.40
2023-03-29T15:03:50.184Z,31.30
2023-03-29T15:06:26.392Z,30.90
2023-03-29T15:09:06.629Z,30.80
2023-03-29T15:11:55.582Z,30.80
2023-03-29T15:14:37.921Z,30.80
2023-03-29T15:17:50.248Z,30.70
2023-03-29T15:20:29.920Z,30.30
2023-03-29T15:23:16.683Z,30.40
2023-03-29T15:25:58.897Z,30.40
2023-03-29T15:28:36.012Z,30.40
2023-03-29T15:31:15.079Z,30.40
2023-03-29T15:33:50.045Z,30.80
2023-03-29T15:36:24.974Z,31.00
2023-03-29T15:39:00.909Z,31.00
2023-03-29T15:41:35.759Z,30.90
2023-03-29T15:44:11.458Z,30.10
2023-03-29T15:46:46.650Z,30.10
2023-03-29T15:49:21.829Z,29.80
2023-03-29T15:51:56.696Z,29.70
2023-03-29T15:54:32.173Z,29.70
2023-03-29T15:57:12.844Z,29.70
2023-03-29T15:59:48.057Z,29.80
2023-03-29T16:02:24.761Z,29.40
2023-03-29T16:05:01.620Z,29.40
2023-03-29T16:07:36.759Z,29.50
2023-03-29T16:10:11.689Z,29.60
2023-03-29T16:12:46.624Z,29.50
2023-03-29T16:15:23.952Z,29.30
2023-03-29T16:17:59.341Z,29.10
2023-03-29T16:20:34.362Z,29.20
2023-03-29T16:23:09.648Z,29.30
2023-03-29T16:25:44.595Z,29.60
2023-03-29T16:28:19.465Z,29.80
2023-03-29T16:30:54.308Z,29.80
2023-03-29T16:33:29.316Z,30.00
2023-03-29T16:36:05.038Z,30.20
2023-03-29T16:38:40.566Z,30.20
2023-03-29T16:41:17.140Z,30.20
2023-03-29T16:43:52.002Z,30.20
2023-03-29T16:46:27.861Z,30.40
2023-03-29T16:49:03.098Z,30.50
2023-03-29T16:51:38.005Z,30.50
2023-03-29T16:54:13.985Z,30.40
2023-03-29T16:56:48.999Z,30.50
2023-03-29T16:59:24.003Z,30.70
2023-03-29T17:01:58.926Z,30.70
2023-03-29T17:04:33.839Z,30.90
2023-03-29T17:07:08.779Z,30.80
2023-03-29T17:09:45.734Z,30.80
2023-03-29T17:12:21.199Z,30.80
2023-03-29T17:14:57.010Z,31.10
2023-03-29T17:17:32.090Z,31.10
2023-03-29T17:20:11.811Z,31.10
2023-03-29T17:22:49.006Z,31.30
2023-03-29T17:25:23.997Z,31.70
2023-03-29T17:27:58.855Z,31.70
2023-03-29T17:30:35.088Z,31.40
2023-03-29T17:33:11.218Z,31.70
2023-03-29T17:35:46.269Z,31.70
2023-03-29T17:38:22.471Z,31.90
2023-03-29T17:40:57.417Z,32.10
2023-03-29T17:43:32.697Z,33.10
2023-03-29T17:46:07.836Z,32.90
2023-03-29T17:48:42.705Z,32.90
2023-03-29T17:51:19.704Z,33.10
2023-03-29T17:53:56.620Z,33.70
2023-03-29T17:56:31.856Z,34.00
2023-03-29T17:59:07.372Z,34.10
2023-03-29T18:01:42.368Z,33.90
2023-03-29T18:04:19.076Z,33.60
2023-03-29T18:06:54.934Z,33.70
2023-03-29T18:09:30.895Z,33.70
2023-03-29T18:12:06.804Z,33.40
2023-03-29T18:14:41.702Z,33.40
2023-03-29T18:17:17.355Z,33.40
2023-03-29T18:19:52.192Z,33.30
2023-03-29T18:22:27.024Z,33.20
2023-03-29T18:25:03.119Z,33.10
2023-03-29T18:27:39.767Z,33.20
2023-03-29T18:30:16.599Z,33.20
2023-03-29T18:32:53.095Z,33.20
2023-03-29T18:35:28.110Z,33.20
2023-03-29T18:38:03.368Z,33.10
2023-03-29T18:40:39.095Z,33.10
2023-03-29T18:43:14.313Z,33.10
2023-03-29T18:45:50.117Z,33.20
2023-03-29T18:48:25.387Z,33.20
2023-03-29T18:51:00.272Z,33.30
2023-03-29T18:53:36.765Z,33.30
2023-03-29T18:56:11.682Z,33.30
2023-03-29T18:58:47.227Z,33.30
2023-03-29T19:01:22.122Z,33.30
2023-03-29T19:03:57.053Z,33.40
2023-03-29T19:06:31.997Z,33.40
2023-03-29T19:09:07.407Z,33.50
2023-03-29T19:11:42.319Z,33.50
2023-03-29T19:14:23.296Z,33.50
2023-03-29T19:16:58.240Z,33.60
2023-03-29T19:19:33.166Z,33.70
2023-03-29T19:22:08.026Z,33.80
2023-03-29T19:24:43.024Z,33.80
2023-03-29T19:27:18.538Z,33.90
2023-03-29T19:29:53.433Z,33.90
2023-03-29T19:32:28.398Z,33.90
2023-03-29T19:35:04.268Z,33.90
2023-03-29T19:37:39.413Z,33.70
2023-03-29T19:40:14.429Z,33.70
2023-03-29T19:42:49.348Z,33.60
2023-03-29T19:45:24.637Z,33.70
2023-03-29T19:48:03.142Z,33.50
2023-03-29T19:50:44.074Z,33.50
2023-03-29T19:53:18.948Z,33.50
2023-03-29T19:55:54.513Z,33.50
2023-03-29T19:58:29.928Z,33.30
2023-03-29T20:01:05.010Z,33.40
2023-03-29T20:03:42.257Z,33.40
2023-03-29T20:06:20.415Z,33.30
2023-03-29T20:08:55.956Z,33.30
2023-03-29T20:11:31.101Z,33.30
2023-03-29T20:14:05.982Z,33.40
2023-03-29T20:16:42.508Z,33.40
2023-03-29T20:19:17.794Z,33.40
2023-03-29T20:21:57.418Z,33.30
2023-03-29T20:24:32.593Z,33.30
2023-03-29T20:27:07.592Z,33.30
2023-03-29T20:29:42.746Z,33.30
2023-03-29T20:32:17.736Z,33.40
2023-03-29T20:34:52.602Z,33.30
2023-03-29T20:37:28.413Z,33.30
2023-03-29T20:40:05.345Z,33.40
2023-03-29T20:42:40.272Z,33.30
2023-03-29T20:45:18.581Z,33.30
2023-03-29T20:47:57.667Z,33.20
2023-03-29T20:50:32.715Z,33.30
2023-03-29T20:53:08.183Z,33.30
2023-03-29T20:55:43.090Z,33.30
2023-03-29T20:58:18.013Z,33.40
2023-03-29T21:00:52.878Z,33.40
2023-03-29T21:03:27.789Z,33.50
2023-03-29T21:06:03.503Z,33.50
2023-03-29T21:08:38.643Z,33.60
2023-03-29T21:11:15.836Z,33.60
2023-03-29T21:13:52.810Z,33.60
2023-03-29T21:16:28.991Z,33.60
2023-03-29T21:19:03.978Z,33.60
2023-03-29T21:21:41.327Z,33.60
2023-03-29T21:24:16.406Z,33.50
2023-03-29T21:26:51.416Z,33.50
2023-03-29T21:29:26.459Z,33.30
2023-03-29T21:32:01.363Z,33.20
2023-03-29T21:34:36.595Z,32.90
2023-03-29T21:37:13.336Z,32.70
2023-03-29T21:39:49.554Z,32.50
2023-03-29T21:42:24.417Z,32.30
2023-03-29T21:44:59.258Z,32.30
2023-03-29T21:47:34.303Z,32.20
2023-03-29T21:50:10.681Z,32.10
2023-03-29T21:52:45.757Z,32.50
2023-03-29T21:55:20.663Z,32.00
2023-03-29T21:57:55.616Z,31.80
2023-03-29T22:00:31.190Z,31.50
2023-03-29T22:03:06.215Z,31.30
2023-03-29T22:05:41.895Z,31.20
2023-03-29T22:08:16.782Z,31.20
2023-03-29T22:10:56.904Z,31.10
2023-03-29T22:13:31.876Z,30.90
2023-03-29T22:16:08.032Z,31.00
2023-03-29T22:18:42.970Z,30.90
2023-03-29T22:21:26.798Z,30.90
2023-03-29T22:24:02.291Z,30.90
2023-03-29T22:26:37.191Z,30.80
2023-03-29T22:29:12.363Z,30.90
2023-03-29T22:31:47.304Z,30.90
2023-03-29T22:34:22.243Z,30.90
2023-03-29T22:36:57.109Z,30.80
2023-03-29T22:39:35.733Z,30.90
2023-03-29T22:42:10.625Z,30.90
2023-03-29T22:44:45.595Z,30.90
2023-03-29T22:47:20.503Z,31.30
2023-03-29T22:49:56.356Z,30.90
2023-03-29T22:52:31.425Z,30.90
2023-03-29T22:55:06.904Z,30.80
2023-03-29T22:57:42.048Z,30.90
2023-03-29T23:00:17.739Z,30.90
2023-03-29T23:02:52.859Z,30.90
2023-03-29T23:05:27.744Z,30.90
2023-03-29T23:08:02.772Z,30.90
2023-03-29T23:10:37.618Z,30.90
2023-03-29T23:13:13.576Z,30.80
2023-03-29T23:15:49.589Z,30.80
2023-03-29T23:18:26.447Z,30.70
2023-03-29T23:21:01.779Z,30.80
2023-03-29T23:23:37.028Z,30.80
2023-03-29T23:26:12.052Z,30.80
2023-03-29T23:28:47.097Z,30.70
2023-03-29T23:31:23.781Z,30.70
2023-03-29T23:33:59.037Z,30.80
2023-03-29T23:36:33.904Z,30.80
2023-03-29T23:39:09.877Z,30.80
2023-03-29T23:41:44.785Z,30.70
2023-03-29T23:44:19.682Z,30.70
2023-03-29T23:46:54.585Z,30.60
2023-03-29T23:49:30.051Z,30.70
2023-03-29T23:52:05.326Z,30.70
2023-03-29T23:54:40.183Z,30.80
2023-03-29T23:57:15.332Z,31.90
2023-03-29T23:59:52.629Z,32.30
